createdAt,value
2023-01-10T00:00:57.260Z,4.69
2023-01-10T00:03:28.264Z,4.72
2023-01-10T00:05:55.496Z,4.70
2023-01-10T00:08:22.460Z,4.66
2023-01-10T00:10:49.807Z,4.61
2023-01-10T00:13:24.078Z,4.61
2023-01-10T00:15:52.999Z,4.61
2023-01-10T00:18:20.946Z,4.62
2023-01-10T00:20:49.657Z,4.61
2023-01-10T00:23:20.189Z,4.63
2023-01-10T00:25:47.550Z,4.64
2023-01-10T00:28:20.535Z,4.68
2023-01-10T00:31:01.229Z,4.63
2023-01-10T00:33:32.012Z,4.64
2023-01-10T00:36:00.631Z,4.62
2023-01-10T00:38:28.431Z,4.61
2023-01-10T00:40:55.698Z,4.60
2023-01-10T00:43:41.292Z,4.59
2023-01-10T00:46:09.403Z,4.56
2023-01-10T00:48:36.581Z,4.54
2023-01-10T00:51:04.431Z,4.55
2023-01-10T00:53:31.560Z,4.54
2023-01-10T00:55:58.692Z,4.56
2023-01-10T00:58:25.677Z,4.57
2023-01-10T01:00:53.025Z,4.58
2023-01-10T01:03:21.996Z,4.60
2023-01-10T01:05:49.317Z,4.58
2023-01-10T01:08:18.192Z,4.59
2023-01-10T01:10:45.895Z,4.50
2023-01-10T01:13:18.962Z,4.52
2023-01-10T01:15:46.825Z,4.49
2023-01-10T01:18:21.099Z,4.48
2023-01-10T01:20:52.713Z,4.47
2023-01-10T01:23:19.817Z,4.48
2023-01-10T01:25:53.931Z,4.47
2023-01-10T01:28:22.025Z,4.44
2023-01-10T01:30:49.898Z,4.43
2023-01-10T01:33:17.859Z,4.42
2023-01-10T01:35:47.126Z,4.38
2023-01-10T01:38:15.038Z,4.36
2023-01-10T01:40:42.388Z,4.32
2023-01-10T01:43:26.987Z,4.28
2023-01-10T01:45:55.836Z,4.28
2023-01-10T01:48:42.881Z,4.22
2023-01-10T01:51:17.480Z,4.23
2023-01-10T01:53:51.054Z,4.20
2023-01-10T01:56:25.978Z,4.21
2023-01-10T01:58:59.660Z,4.21
2023-01-10T02:01:28.777Z,4.22
2023-01-10T02:04:03.574Z,4.21
2023-01-10T02:06:30.893Z,4.23
2023-01-10T02:09:16.243Z,4.21
2023-01-10T02:11:43.494Z,4.20
2023-01-10T02:14:12.178Z,4.18
2023-01-10T02:16:39.424Z,4.16
2023-01-10T02:19:23.114Z,4.19
2023-01-10T02:22:08.473Z,4.20
2023-01-10T02:24:48.436Z,4.19
2023-01-10T02:27:53.572Z,4.15
2023-01-10T02:30:35.528Z,4.16
2023-01-10T02:33:30.823Z,4.12
2023-01-10T02:36:26.788Z,4.10
2023-01-10T02:39:06.356Z,4.07
2023-01-10T02:41:54.507Z,4.03
2023-01-10T02:44:46.037Z,4.03
2023-01-10T02:47:14.565Z,4.04
2023-01-10T02:49:50.176Z,4.04
2023-01-10T02:52:25.497Z,4.06
2023-01-10T02:54:58.800Z,4.09
2023-01-10T02:57:48.705Z,4.09
2023-01-10T03:00:33.993Z,4.13
2023-01-10T03:03:14.694Z,4.16
2023-01-10T03:05:47.854Z,4.17
2023-01-10T03:08:30.663Z,4.19
2023-01-10T03:11:03.857Z,4.20
2023-01-10T03:13:39.555Z,4.22
2023-01-10T03:16:09.863Z,4.24
2023-01-10T03:19:01.974Z,4.24
2023-01-10T03:21:31.699Z,4.24
2023-01-10T03:24:08.143Z,4.24
2023-01-10T03:27:07.574Z,4.23
2023-01-10T03:29:44.469Z,4.23
2023-01-10T03:32:15.486Z,4.22
2023-01-10T03:34:42.530Z,4.19
2023-01-10T03:37:15.879Z,4.12
2023-01-10T03:40:15.145Z,4.05
2023-01-10T03:43:28.521Z,4.03
2023-01-10T03:46:02.672Z,4.04
2023-01-10T03:48:36.642Z,4.02
2023-01-10T03:51:06.594Z,4.05
2023-01-10T03:53:37.351Z,4.06
2023-01-10T03:56:04.549Z,4.06
2023-01-10T03:58:31.816Z,4.09
2023-01-10T04:00:58.835Z,4.11
2023-01-10T04:03:26.104Z,4.13
2023-01-10T04:05:52.976Z,4.17
2023-01-10T04:08:20.133Z,4.16
2023-01-10T04:10:49.606Z,4.12
2023-01-10T04:13:17.047Z,4.06
2023-01-10T04:15:43.904Z,4.06
2023-01-10T04:18:11.121Z,4.05
2023-01-10T04:20:37.998Z,4.02
2023-01-10T04:23:05.302Z,4.02
2023-01-10T04:25:32.475Z,4.01
2023-01-10T04:27:59.652Z,3.98
2023-01-10T04:30:27.403Z,3.99
2023-01-10T04:32:54.542Z,3.99
2023-01-10T04:35:21.429Z,4.00
2023-01-10T04:37:48.572Z,4.01
2023-01-10T04:40:19.488Z,4.00
2023-01-10T04:42:46.907Z,4.00
2023-01-10T04:45:17.809Z,4.01
2023-01-10T04:47:49.820Z,4.01
2023-01-10T04:50:16.891Z,4.02
2023-01-10T04:52:44.144Z,4.03
2023-01-10T04:55:11.120Z,4.04
2023-01-10T04:57:38.576Z,4.05
2023-01-10T05:00:06.064Z,4.05
2023-01-10T05:02:33.822Z,4.05
2023-01-10T05:05:01.068Z,4.04
2023-01-10T05:07:28.251Z,4.06
2023-01-10T05:09:55.136Z,4.08
2023-01-10T05:12:22.345Z,4.08
2023-01-10T05:14:49.337Z,4.09
2023-01-10T05:17:16.487Z,4.07
2023-01-10T05:19:43.336Z,4.07
2023-01-10T05:22:10.516Z,4.08
2023-01-10T05:24:37.433Z,4.10
2023-01-10T05:27:04.654Z,4.12
2023-01-10T05:29:33.381Z,4.14
2023-01-10T05:32:00.867Z,4.15
2023-01-10T05:34:28.018Z,4.13
2023-01-10T05:36:55.418Z,4.12
2023-01-10T05:39:22.409Z,4.12
2023-01-10T05:41:49.712Z,4.10
2023-01-10T05:44:16.566Z,4.09
2023-01-10T05:46:44.212Z,4.08
2023-01-10T05:49:11.212Z,4.07
2023-01-10T05:51:38.497Z,4.08
2023-01-10T05:54:05.839Z,4.06
2023-01-10T05:56:33.070Z,4.05
2023-01-10T05:59:06.607Z,4.07
2023-01-10T06:01:38.909Z,4.07
2023-01-10T06:04:05.752Z,4.07
2023-01-10T06:06:34.433Z,4.07
2023-01-10T06:09:01.474Z,4.08
2023-01-10T06:11:31.732Z,4.10
2023-01-10T06:13:58.791Z,4.12
2023-01-10T06:16:26.025Z,4.14
2023-01-10T06:18:52.948Z,4.15
2023-01-10T06:21:20.443Z,4.16
2023-01-10T06:23:47.343Z,4.12
2023-01-10T06:26:14.699Z,4.10
2023-01-10T06:28:41.538Z,4.10
2023-01-10T06:31:08.879Z,4.10
2023-01-10T06:33:36.416Z,4.11
2023-01-10T06:36:04.405Z,4.08
2023-01-10T06:38:31.355Z,4.08
2023-01-10T06:40:58.510Z,4.08
2023-01-10T06:43:26.056Z,4.10
2023-01-10T06:45:53.378Z,4.10
2023-01-10T06:48:20.854Z,4.08
2023-01-10T06:50:50.133Z,4.08
2023-01-10T06:53:17.071Z,4.07
2023-01-10T06:55:44.436Z,4.09
2023-01-10T06:58:11.381Z,4.08
2023-01-10T07:00:38.871Z,4.08
2023-01-10T07:03:06.021Z,4.08
2023-01-10T07:05:36.197Z,4.10
2023-01-10T07:08:03.453Z,4.09
2023-01-10T07:10:30.861Z,4.06
2023-01-10T07:12:58.928Z,4.05
2023-01-10T07:15:27.184Z,4.03
2023-01-10T07:17:56.633Z,4.05
2023-01-10T07:20:24.133Z,4.07
2023-01-10T07:22:59.391Z,4.07
2023-01-10T07:25:28.817Z,4.08
2023-01-10T07:27:55.846Z,4.08
2023-01-10T07:30:25.536Z,4.08
2023-01-10T07:32:56.554Z,4.10
2023-01-10T07:35:25.294Z,4.11
2023-01-10T07:37:52.229Z,4.14
2023-01-10T07:40:19.630Z,4.18
2023-01-10T07:42:46.573Z,4.19
2023-01-10T07:45:13.901Z,4.22
2023-01-10T07:47:40.849Z,4.25
2023-01-10T07:50:08.627Z,4.27
2023-01-10T07:52:35.808Z,4.29
2023-01-10T07:55:03.056Z,4.31
2023-01-10T07:57:29.979Z,4.34
2023-01-10T07:59:57.252Z,4.33
2023-01-10T08:02:24.248Z,4.35
2023-01-10T08:04:51.523Z,4.36
2023-01-10T08:07:18.915Z,4.38
2023-01-10T08:09:46.257Z,4.39
2023-01-10T08:12:13.096Z,4.40
2023-01-10T08:14:40.338Z,4.42
2023-01-10T08:17:07.504Z,4.43
2023-01-10T08:19:34.703Z,4.42
2023-01-10T08:22:03.173Z,4.41
2023-01-10T08:24:30.393Z,4.40
2023-01-10T08:27:00.351Z,4.36
2023-01-10T08:29:28.429Z,4.35
2023-01-10T08:31:55.469Z,4.33
2023-01-10T08:34:22.712Z,4.33
2023-01-10T08:36:54.134Z,4.33
2023-01-10T08:39:22.949Z,4.37
2023-01-10T08:41:49.884Z,4.36
2023-01-10T08:44:17.595Z,4.37
2023-01-10T08:46:45.791Z,4.37
2023-01-10T08:49:13.120Z,4.37
2023-01-10T08:51:40.074Z,4.40
2023-01-10T08:54:07.470Z,4.40
2023-01-10T08:56:36.352Z,4.38
2023-01-10T08:59:03.437Z,4.29
2023-01-10T09:01:30.422Z,4.33
2023-01-10T09:03:57.819Z,4.34
2023-01-10T09:06:24.766Z,4.36
2023-01-10T09:08:52.066Z,4.38
2023-01-10T09:11:19.077Z,4.40
2023-01-10T09:13:50.610Z,4.44
2023-01-10T09:16:18.626Z,4.47
2023-01-10T09:18:46.182Z,4.50
2023-01-10T09:21:13.132Z,4.52
2023-01-10T09:23:40.660Z,4.52
2023-01-10T09:26:07.754Z,4.51
2023-01-10T09:28:35.003Z,4.53
2023-01-10T09:31:05.207Z,4.52
2023-01-10T09:33:45.709Z,4.53
2023-01-10T09:36:15.721Z,4.53
2023-01-10T09:38:43.243Z,4.48
2023-01-10T09:41:55.621Z,4.51
2023-01-10T09:44:55.306Z,4.53
2023-01-10T09:47:35.280Z,4.54
2023-01-10T09:50:06.488Z,4.56
2023-01-10T09:52:38.336Z,4.61
2023-01-10T09:55:25.409Z,4.62
2023-01-10T09:57:55.571Z,4.68
2023-01-10T10:00:31.659Z,4.72
2023-01-10T10:02:58.632Z,4.72
2023-01-10T10:05:29.145Z,4.74
2023-01-10T10:08:05.138Z,4.77
2023-01-10T10:10:41.346Z,4.78
2023-01-10T10:13:23.155Z,4.85
2023-01-10T10:16:28.071Z,4.89
2023-01-10T10:19:53.794Z,4.91
2023-01-10T10:22:39.110Z,4.93
2023-01-10T10:25:11.809Z,4.95
2023-01-10T10:28:11.161Z,4.95
2023-01-10T10:31:15.108Z,4.97
2023-01-10T10:34:05.773Z,5.03
2023-01-10T10:36:43.931Z,5.07
2023-01-10T10:39:21.107Z,5.10
2023-01-10T10:41:53.306Z,5.15
2023-01-10T10:44:42.003Z,5.18
2023-01-10T10:47:20.769Z,5.23
2023-01-10T10:49:57.433Z,5.27
2023-01-10T10:52:27.200Z,5.31
2023-01-10T10:54:55.041Z,5.30
2023-01-10T10:57:27.612Z,5.32
2023-01-10T10:59:55.968Z,5.35
2023-01-10T11:02:31.349Z,5.37
2023-01-10T11:05:05.346Z,5.39
2023-01-10T11:07:35.601Z,5.44
2023-01-10T11:10:10.960Z,5.47
2023-01-10T11:12:42.068Z,5.48
2023-01-10T11:15:09.754Z,5.52
2023-01-10T11:17:41.004Z,5.53
2023-01-10T11:20:18.919Z,5.55
2023-01-10T11:22:51.225Z,5.57
2023-01-10T11:25:21.104Z,5.58
2023-01-10T11:27:58.167Z,5.57
2023-01-10T11:30:30.393Z,5.53
2023-01-10T11:33:02.545Z,5.51
2023-01-10T11:35:32.766Z,5.48
2023-01-10T11:38:16.305Z,5.48
2023-01-10T11:41:22.891Z,5.34
2023-01-10T11:43:49.756Z,5.32
2023-01-10T11:46:21.723Z,5.28
2023-01-10T11:49:07.680Z,5.24
2023-01-10T11:51:44.407Z,5.26
2023-01-10T11:54:17.762Z,5.29
2023-01-10T11:56:56.336Z,5.32
2023-01-10T11:59:24.448Z,5.36
2023-01-10T12:01:59.040Z,5.37
2023-01-10T12:04:31.129Z,5.39
2023-01-10T12:07:04.941Z,5.41
2023-01-10T12:09:37.504Z,5.41
2023-01-10T12:12:06.046Z,5.38
2023-01-10T12:14:33.075Z,5.41
2023-01-10T12:17:03.132Z,5.43
2023-01-10T12:19:30.196Z,5.45
2023-01-10T12:22:06.292Z,5.45
2023-01-10T12:24:36.053Z,5.49
2023-01-10T12:27:06.073Z,5.47
2023-01-10T12:29:43.549Z,5.45
2023-01-10T12:32:42.094Z,5.36
2023-01-10T12:35:45.707Z,5.34
2023-01-10T12:38:46.409Z,5.31
2023-01-10T12:41:39.813Z,5.23
2023-01-10T12:44:16.704Z,5.19
2023-01-10T12:47:08.339Z,5.18
2023-01-10T12:49:57.385Z,5.15
2023-01-10T12:52:45.889Z,5.15
2023-01-10T12:55:21.425Z,5.12
2023-01-10T12:57:53.940Z,5.11
2023-01-10T13:00:34.894Z,5.12
2023-01-10T13:03:17.277Z,5.13
2023-01-10T13:05:48.758Z,5.17
2023-01-10T13:08:19.195Z,5.14
2023-01-10T13:10:50.027Z,5.12
2023-01-10T13:13:29.715Z,5.10
2023-01-10T13:16:24.639Z,5.08
2023-01-10T13:19:13.411Z,5.06
2023-01-10T13:21:43.651Z,5.03
2023-01-10T13:24:21.209Z,5.03
2023-01-10T13:27:03.306Z,5.00
2023-01-10T13:29:38.055Z,5.03
2023-01-10T13:32:21.614Z,5.02
2023-01-10T13:34:48.812Z,5.04
2023-01-10T13:37:36.798Z,5.01
2023-01-10T13:40:05.739Z,5.08
2023-01-10T13:42:55.138Z,5.03
2023-01-10T13:45:26.076Z,4.98
2023-01-10T13:47:57.038Z,5.03
2023-01-10T13:50:44.181Z,5.04
2023-01-10T13:53:13.021Z,5.04
2023-01-10T13:55:39.956Z,5.05
2023-01-10T13:58:16.289Z,5.07
2023-01-10T14:01:10.383Z,5.06
2023-01-10T14:03:50.746Z,5.05
2023-01-10T14:06:29.063Z,5.05
2023-01-10T14:09:26.709Z,5.04
2023-01-10T14:11:59.640Z,5.06
2023-01-10T14:14:31.321Z,5.07
2023-01-10T14:17:15.168Z,5.03
2023-01-10T14:19:45.680Z,5.04
2023-01-10T14:22:27.485Z,4.98
2023-01-10T14:24:54.926Z,4.97
2023-01-10T14:27:22.997Z,4.94
2023-01-10T14:29:53.066Z,4.92
2023-01-10T14:32:40.858Z,4.89
2023-01-10T14:35:15.524Z,4.86
2023-01-10T14:37:53.315Z,4.79
2023-01-10T14:40:32.531Z,4.75
2023-01-10T14:43:04.641Z,4.73
2023-01-10T14:46:10.410Z,4.75
2023-01-10T14:48:46.211Z,4.71
2023-01-10T14:51:18.255Z,4.71
2023-01-10T14:53:45.246Z,4.72
2023-01-10T14:56:20.212Z,4.70
2023-01-10T14:58:47.149Z,4.65
2023-01-10T15:01:24.770Z,4.64
2023-01-10T15:03:53.012Z,4.66
2023-01-10T15:06:20.329Z,4.65
2023-01-10T15:08:56.906Z,4.65
2023-01-10T15:11:32.013Z,4.64
2023-01-10T15:14:08.640Z,4.63
2023-01-10T15:16:42.131Z,4.64
2023-01-10T15:19:15.608Z,4.61
2023-01-10T15:22:04.761Z,4.61
2023-01-10T15:24:35.750Z,4.62
2023-01-10T15:27:06.293Z,4.63
2023-01-10T15:29:34.039Z,4.61
2023-01-10T15:32:16.739Z,4.58
2023-01-10T15:34:48.958Z,4.59
2023-01-10T15:37:22.527Z,4.60
2023-01-10T15:39:49.816Z,4.61
2023-01-10T15:42:20.192Z,4.60
2023-01-10T15:44:52.995Z,4.61
2023-01-10T15:47:41.689Z,4.60
2023-01-10T15:50:18.845Z,4.59
2023-01-10T15:52:58.408Z,4.58
2023-01-10T15:55:39.556Z,4.60
2023-01-10T15:58:32.768Z,4.59
2023-01-10T16:01:00.585Z,4.62
2023-01-10T16:03:34.409Z,4.61
2023-01-10T16:06:02.652Z,4.63
2023-01-10T16:08:35.388Z,4.59
2023-01-10T16:11:06.999Z,4.56
2023-01-10T16:13:35.505Z,4.57
2023-01-10T16:16:05.182Z,4.56
2023-01-10T16:18:34.042Z,4.53
2023-01-10T16:21:03.065Z,4.54
2023-01-10T16:23:35.437Z,4.54
2023-01-10T16:26:06.111Z,4.55
2023-01-10T16:28:36.346Z,4.57
2023-01-10T16:31:06.521Z,4.55
2023-01-10T16:33:34.346Z,4.54
2023-01-10T16:36:01.653Z,4.55
2023-01-10T16:38:29.343Z,4.53
2023-01-10T16:41:21.322Z,4.52
2023-01-10T16:43:49.543Z,4.55
2023-01-10T16:46:16.589Z,4.55
2023-01-10T16:48:47.611Z,4.57
2023-01-10T16:51:18.963Z,4.56
2023-01-10T16:53:47.401Z,4.61
2023-01-10T16:56:17.343Z,4.62
2023-01-10T16:58:44.638Z,4.64
2023-01-10T17:01:17.962Z,4.65
2023-01-10T17:03:45.858Z,4.66
2023-01-10T17:06:14.039Z,4.65
2023-01-10T17:08:42.581Z,4.65
2023-01-10T17:11:20.134Z,4.62
2023-01-10T17:13:47.654Z,4.65
2023-01-10T17:16:18.631Z,4.67
2023-01-10T17:18:47.414Z,4.66
2023-01-10T17:21:17.501Z,4.65
2023-01-10T17:23:44.828Z,4.65
2023-01-10T17:26:14.618Z,4.66
2023-01-10T17:28:41.914Z,4.65
2023-01-10T17:31:09.069Z,4.65
2023-01-10T17:33:37.108Z,4.67
2023-01-10T17:36:05.318Z,4.66
2023-01-10T17:38:33.021Z,4.62
2023-01-10T17:41:02.225Z,4.62
2023-01-10T17:43:30.864Z,4.60
2023-01-10T17:46:01.104Z,4.55
2023-01-10T17:48:29.534Z,4.58
2023-01-10T17:50:59.813Z,4.58
2023-01-10T17:53:27.697Z,4.59
2023-01-10T17:55:54.889Z,4.60
2023-01-10T17:58:22.133Z,4.59
2023-01-10T18:00:49.418Z,4.59
2023-01-10T18:03:16.905Z,4.57
2023-01-10T18:05:51.670Z,4.58
2023-01-10T18:08:19.492Z,4.58
2023-01-10T18:10:47.272Z,4.56
2023-01-10T18:13:15.769Z,4.55
2023-01-10T18:15:50.193Z,4.50
2023-01-10T18:18:19.238Z,4.49
2023-01-10T18:20:46.114Z,4.50
2023-01-10T18:23:25.394Z,4.50
2023-01-10T18:26:00.072Z,4.48
2023-01-10T18:28:40.447Z,4.47
2023-01-10T18:31:12.969Z,4.44
2023-01-10T18:33:40.633Z,4.44
2023-01-10T18:36:14.361Z,4.44
2023-01-10T18:38:42.464Z,4.42
2023-01-10T18:41:09.356Z,4.42
2023-01-10T18:43:36.633Z,4.40
2023-01-10T18:46:11.095Z,4.40
2023-01-10T18:48:38.602Z,4.36
2023-01-10T18:51:05.733Z,4.33
2023-01-10T18:53:33.384Z,4.32
2023-01-10T18:56:04.498Z,4.32
2023-01-10T18:58:42.080Z,4.31
2023-01-10T19:01:17.202Z,4.29
2023-01-10T19:03:44.936Z,4.26
2023-01-10T19:06:16.102Z,4.29
2023-01-10T19:08:44.739Z,4.27
2023-01-10T19:11:15.276Z,4.27
2023-01-10T19:13:47.516Z,4.31
2023-01-10T19:16:20.610Z,4.26
2023-01-10T19:18:56.392Z,4.22
2023-01-10T19:21:25.239Z,4.24
2023-01-10T19:23:57.417Z,4.23
2023-01-10T19:26:24.987Z,4.25
2023-01-10T19:28:52.889Z,4.26
2023-01-10T19:31:22.694Z,4.24
2023-01-10T19:33:50.874Z,4.24
2023-01-10T19:36:19.458Z,4.23
2023-01-10T19:38:47.088Z,4.22
2023-01-10T19:41:14.612Z,4.22
2023-01-10T19:43:41.943Z,4.21
2023-01-10T19:46:11.301Z,4.21
2023-01-10T19:48:39.600Z,4.20
2023-01-10T19:51:08.922Z,4.20
2023-01-10T19:53:37.480Z,4.20
2023-01-10T19:56:07.502Z,4.18
2023-01-10T19:58:35.244Z,4.14
2023-01-10T20:01:10.676Z,4.10
2023-01-10T20:03:39.177Z,4.07
2023-01-10T20:06:06.805Z,4.06
2023-01-10T20:08:34.014Z,4.03
2023-01-10T20:11:05.805Z,4.00
2023-01-10T20:13:45.087Z,3.99
2023-01-10T20:16:13.973Z,4.00
2023-01-10T20:18:41.543Z,3.93
2023-01-10T20:21:10.432Z,3.96
2023-01-10T20:23:38.518Z,3.91
2023-01-10T20:26:12.717Z,3.96
2023-01-10T20:28:41.883Z,3.97
2023-01-10T20:31:12.670Z,3.98
2023-01-10T20:33:40.029Z,4.02
2023-01-10T20:36:09.249Z,4.05
2023-01-10T20:38:37.573Z,4.07
2023-01-10T20:41:07.522Z,4.07
2023-01-10T20:43:35.910Z,4.10
2023-01-10T20:46:08.608Z,4.10
2023-01-10T20:48:35.914Z,4.13
2023-01-10T20:51:04.593Z,4.13
2023-01-10T20:53:32.369Z,4.15
2023-01-10T20:56:12.889Z,4.13
2023-01-10T20:58:40.328Z,4.14
2023-01-10T21:01:08.223Z,4.14
2023-01-10T21:03:35.950Z,4.15
2023-01-10T21:06:03.420Z,4.15
2023-01-10T21:08:30.627Z,4.14
2023-01-10T21:10:58.347Z,4.15
2023-01-10T21:13:26.439Z,4.16
2023-01-10T21:15:56.030Z,4.16
2023-01-10T21:18:26.914Z,4.15
2023-01-10T21:20:55.842Z,4.13
2023-01-10T21:23:25.546Z,4.13
2023-01-10T21:25:53.244Z,4.07
2023-01-10T21:28:21.341Z,4.10
2023-01-10T21:30:48.355Z,4.10
2023-01-10T21:33:15.710Z,4.12
2023-01-10T21:35:42.694Z,4.12
2023-01-10T21:38:09.963Z,4.13
2023-01-10T21:40:36.903Z,4.13
2023-01-10T21:43:04.485Z,4.14
2023-01-10T21:45:32.499Z,4.14
2023-01-10T21:47:59.792Z,4.15
2023-01-10T21:50:28.158Z,4.14
2023-01-10T21:52:55.307Z,4.14
2023-01-10T21:55:22.323Z,4.16
2023-01-10T21:57:49.444Z,4.16
2023-01-10T22:00:16.790Z,4.18
2023-01-10T22:02:44.134Z,4.18
2023-01-10T22:05:11.556Z,4.20
2023-01-10T22:07:38.815Z,4.20
2023-01-10T22:10:08.075Z,4.22
2023-01-10T22:12:36.773Z,4.20
2023-01-10T22:15:04.159Z,4.19
2023-01-10T22:17:31.356Z,4.21
2023-01-10T22:19:58.265Z,4.20
2023-01-10T22:22:25.490Z,4.20
2023-01-10T22:24:52.366Z,4.21
2023-01-10T22:27:20.107Z,4.23
2023-01-10T22:29:47.179Z,4.24
2023-01-10T22:32:14.576Z,4.23
2023-01-10T22:34:41.511Z,4.23
2023-01-10T22:37:09.056Z,4.22
2023-01-10T22:39:35.998Z,4.24
2023-01-10T22:42:03.809Z,4.23
2023-01-10T22:44:30.877Z,4.25
2023-01-10T22:46:58.019Z,4.25
2023-01-10T22:49:24.895Z,4.25
2023-01-10T22:51:52.098Z,4.28
2023-01-10T22:54:19.048Z,4.29
2023-01-10T22:56:46.866Z,4.28
2023-01-10T22:59:14.114Z,4.30
2023-01-10T23:01:42.102Z,4.29
2023-01-10T23:04:09.223Z,4.31
2023-01-10T23:06:36.609Z,4.31
2023-01-10T23:09:04.103Z,4.30
2023-01-10T23:11:31.348Z,4.30
2023-01-10T23:13:58.228Z,4.31
2023-01-10T23:16:32.796Z,4.31
2023-01-10T23:19:00.364Z,4.32
2023-01-10T23:21:29.415Z,4.31
2023-01-10T23:23:56.848Z,4.32
2023-01-10T23:26:24.211Z,4.30
2023-01-10T23:28:51.910Z,4.31
2023-01-10T23:31:22.080Z,4.29
2023-01-10T23:33:49.949Z,4.27
2023-01-10T23:36:17.730Z,4.25
2023-01-10T23:38:44.983Z,4.21
2023-01-10T23:41:12.320Z,4.22
2023-01-10T23:43:39.295Z,4.21
2023-01-10T23:46:07.154Z,4.21
2023-01-10T23:48:34.797Z,4.20
2023-01-10T23:51:02.060Z,4.20
2023-01-10T23:53:29.142Z,4.20
2023-01-10T23:55:57.010Z,4.16
2023-01-10T23:58:24.150Z,4.17
